Oval Lp No.11 — JL6306 — position and weather

sailwx.info

Track history (hours):
 
Tides and Currents Weather Stations Pressure Air Temp Water Temp Dewpoint Dewpoint Depression Visibility Wind Speed Wind Dir Waves Ship Positions

Oval Lp No.11

Last reported at 2017-Jan-21 23:33 UTC. Time now 2017-Jan-21 23:44 UTC.
Position N 35°32' E 139°58'.

Length 67 m; draft 3.6 m.

Type: Ship (hazmat cat A). MMSI: 431500366.

Date/timePositionNaut miles runAvg speedWind from/ knotsBaromVisibWave heightAir tempDewpointWater temp
2017-Jan-21 23:33N 35°32' E 139°58'1211.6
2017-Jan-21 22:33N 35°24' E 139°47'1111.1
2017-Jan-21 21:33N 35°13' E 139°47'24410.2
2017-Jan-20 21:33N 34°04' E 135°02'1312.8
2017-Jan-20 20:33N 34°17' E 135°04'7 7.1
2017-Jan-20 19:31N 34°23' E 135°09'0 0.0
2017-Jan-20 18:33N 34°23' E 135°09'0 0.0
2017-Jan-20 17:33N 34°23' E 135°09'0 0.0
2017-Jan-20 16:33N 34°23' E 135°09'0 0.0
2017-Jan-20 15:34N 34°23' E 135°09'0 0.0
2017-Jan-20 14:26N 34°23' E 135°09'0 0.0
2017-Jan-20 13:32N 34°23' E 135°09'0 0.0
2017-Jan-20 12:30N 34°23' E 135°09'0 0.1
2017-Jan-20 11:33N 34°23' E 135°09'0 0.0
2017-Jan-20 10:34N 34°23' E 135°09'0 0.0
2017-Jan-20 09:34N 34°23' E 135°09'0 0.0
2017-Jan-20 08:33N 34°23' E 135°09'0 0.0
2017-Jan-20 07:34N 34°23' E 135°09'0 0.0
2017-Jan-20 06:33N 34°23' E 135°09'0 0.0
2017-Jan-20 05:33N 34°23' E 135°09'0 0.0
2017-Jan-20 04:29N 34°23' E 135°09'6 6.7
2017-Jan-20 03:34N 34°28' E 135°13'1212.1
2017-Jan-20 02:34N 34°36' E 135°24'3 1.2
2017-Jan-20 00:24N 34°34' E 135°26'0 0.0
2017-Jan-19 23:10N 34°34' E 135°26'3 5.0
2017-Jan-19 22:33N 34°36' E 135°23'0 0.5
2017-Jan-19 21:33N 34°36' E 135°23'0 0.0
2017-Jan-19 20:33N 34°36' E 135°23'0 0.0
2017-Jan-19 19:33N 34°36' E 135°23'0 0.0
2017-Jan-19 18:03N 34°36' E 135°23'0 0.0
2017-Jan-19 17:09N 34°36' E 135°23'0 0.0
2017-Jan-19 16:27N 34°36' E 135°23'0 0.0
2017-Jan-19 15:33N 34°36' E 135°23'0 0.0
2017-Jan-19 14:33N 34°36' E 135°23'0 0.0
2017-Jan-19 13:27N 34°36' E 135°23'0 0.0
2017-Jan-19 12:33N 34°36' E 135°23'1110.8
2017-Jan-19 11:33N 34°29' E 135°13'1110.7
2017-Jan-19 10:32N 34°21' E 135°04'9 9.3
2017-Jan-19 09:33N 34°12' E 134°60'1311.1
2017-Jan-19 08:25N 33°60' E 135°01'243 9.8
2017-Jan-18 07:30N 35°09' E 139°44'1010.7
2017-Jan-18 06:34N 35°19' E 139°43'1010.4
2017-Jan-18 05:33N 35°28' E 139°49'1 0.7
2017-Jan-18 04:33N 35°29' E 139°49'10 9.5
2017-Jan-18 03:34N 35°33' E 140°00'4 3.7
2017-Jan-18 02:26N 35°33' E 140°05'0 0.0
2017-Jan-18 01:26N 35°33' E 140°05'0 0.0
2017-Jan-18 00:23N 35°33' E 140°05'0 0.1
2017-Jan-17 23:32N 35°33' E 140°05'8 8.3
2017-Jan-17 22:31N 35°29' E 139°56'0 0.0
2017-Jan-17 21:31N 35°29' E 139°56'0 0.0
2017-Jan-17 20:31N 35°29' E 139°56'0 0.0
2017-Jan-17 19:31N 35°29' E 139°56'0 0.0
2017-Jan-17 18:31N 35°29' E 139°56'0 0.0
2017-Jan-17 17:31N 35°29' E 139°56'0 0.0
2017-Jan-17 16:25N 35°29' E 139°56'0 0.1
2017-Jan-17 15:31N 35°29' E 139°56'0 0.0
2017-Jan-17 14:31N 35°29' E 139°56'0 0.0
2017-Jan-17 13:31N 35°29' E 139°56'0 0.0
2017-Jan-17 12:31N 35°29' E 139°56'0 0.0
2017-Jan-17 11:31N 35°29' E 139°56'0 0.0
2017-Jan-17 10:31N 35°29' E 139°56'0 0.0
2017-Jan-17 09:28N 35°29' E 139°56'7 7.2
2017-Jan-17 08:33N 35°26' E 139°49'1111.0
2017-Jan-17 07:33N 35°15' E 139°47'24810.7
2017-Jan-16 08:20N 33°59' E 135°00'1012.9
2017-Jan-16 07:33N 34°09' E 134°59'1512.0
2017-Jan-16 06:18N 34°24' E 135°04'1012.8
2017-Jan-16 05:33N 34°30' E 135°12'1111.3
2017-Jan-16 04:33N 34°36' E 135°24'3 2.6
2017-Jan-16 03:33N 34°34' E 135°26'0 0.0
2017-Jan-16 02:32N 34°34' E 135°26'0 0.0
2017-Jan-16 01:21N 34°34' E 135°26'5 5.8
2017-Jan-16 00:31N 34°34' E 135°20'1111.7
2017-Jan-15 23:33N 34°26' E 135°10'1311.8
2017-Jan-15 22:27N 34°16' E 134°60'1011.3
2017-Jan-15 21:33N 34°06' E 135°01'  
2017-Jan-13 08:31N 34°06' E 134°59'1313.1
2017-Jan-13 07:32N 34°19' E 134°59'1212.0
2017-Jan-13 06:32N 34°28' E 135°10'1111.7
2017-Jan-13 05:33N 34°35' E 135°20'4 4.0
2017-Jan-13 04:29N 34°34' E 135°26'0 0.0
2017-Jan-13 03:29N 34°34' E 135°26'0 0.0
2017-Jan-13 02:29N 34°34' E 135°26'2 2.1
2017-Jan-13 01:33N 34°36' E 135°25'1 1.3
2017-Jan-13 00:31N 34°36' E 135°23'0 0.0
2017-Jan-12 23:31N 34°36' E 135°23'4 3.8
2017-Jan-12 22:33N 34°33' E 135°20'1211.9
2017-Jan-12 21:34N 34°25' E 135°09'1212.1
2017-Jan-12 20:33N 34°16' E 134°60'1111.4
2017-Jan-12 19:33N 34°05' E 135°01'  
Track history (hours):
 
Tides and Currents Weather Stations Pressure Air Temp Water Temp Dewpoint Dewpoint Depression Visibility Wind Speed Wind Dir Waves Ship Positions

Oval Lp No.11

Last reported at 2017-Jan-21 23:33 UTC. Time now 2017-Jan-21 23:44 UTC.
Position N 35°32' E 139°58'.

Length 67 m; draft 3.6 m.

Type: Ship (hazmat cat A). MMSI: 431500366.

Date/timePositionNaut miles runAvg speedWind from/ knotsBaromVisibWave heightAir tempDewpointWater temp
2017-Jan-21 23:33N 35°32' E 139°58'1211.6
2017-Jan-21 22:33N 35°24' E 139°47'1111.1
2017-Jan-21 21:33N 35°13' E 139°47'24410.2
2017-Jan-20 21:33N 34°04' E 135°02'1312.8
2017-Jan-20 20:33N 34°17' E 135°04'7 7.1
2017-Jan-20 19:31N 34°23' E 135°09'0 0.0
2017-Jan-20 18:33N 34°23' E 135°09'0 0.0
2017-Jan-20 17:33N 34°23' E 135°09'0 0.0
2017-Jan-20 16:33N 34°23' E 135°09'0 0.0
2017-Jan-20 15:34N 34°23' E 135°09'0 0.0
2017-Jan-20 14:26N 34°23' E 135°09'0 0.0
2017-Jan-20 13:32N 34°23' E 135°09'0 0.0
2017-Jan-20 12:30N 34°23' E 135°09'0 0.1
2017-Jan-20 11:33N 34°23' E 135°09'0 0.0
2017-Jan-20 10:34N 34°23' E 135°09'0 0.0
2017-Jan-20 09:34N 34°23' E 135°09'0 0.0
2017-Jan-20 08:33N 34°23' E 135°09'0 0.0
2017-Jan-20 07:34N 34°23' E 135°09'0 0.0
2017-Jan-20 06:33N 34°23' E 135°09'0 0.0
2017-Jan-20 05:33N 34°23' E 135°09'0 0.0
2017-Jan-20 04:29N 34°23' E 135°09'6 6.7
2017-Jan-20 03:34N 34°28' E 135°13'1212.1
2017-Jan-20 02:34N 34°36' E 135°24'3 1.2
2017-Jan-20 00:24N 34°34' E 135°26'0 0.0
2017-Jan-19 23:10N 34°34' E 135°26'3 5.0
2017-Jan-19 22:33N 34°36' E 135°23'0 0.5
2017-Jan-19 21:33N 34°36' E 135°23'0 0.0
2017-Jan-19 20:33N 34°36' E 135°23'0 0.0
2017-Jan-19 19:33N 34°36' E 135°23'0 0.0
2017-Jan-19 18:03N 34°36' E 135°23'0 0.0
2017-Jan-19 17:09N 34°36' E 135°23'0 0.0
2017-Jan-19 16:27N 34°36' E 135°23'0 0.0
2017-Jan-19 15:33N 34°36' E 135°23'0 0.0
2017-Jan-19 14:33N 34°36' E 135°23'0 0.0
2017-Jan-19 13:27N 34°36' E 135°23'0 0.0
2017-Jan-19 12:33N 34°36' E 135°23'1110.8
2017-Jan-19 11:33N 34°29' E 135°13'1110.7
2017-Jan-19 10:32N 34°21' E 135°04'9 9.3
2017-Jan-19 09:33N 34°12' E 134°60'1311.1
2017-Jan-19 08:25N 33°60' E 135°01'243 9.8
2017-Jan-18 07:30N 35°09' E 139°44'1010.7
2017-Jan-18 06:34N 35°19' E 139°43'1010.4
2017-Jan-18 05:33N 35°28' E 139°49'1 0.7
2017-Jan-18 04:33N 35°29' E 139°49'10 9.5
2017-Jan-18 03:34N 35°33' E 140°00'4 3.7
2017-Jan-18 02:26N 35°33' E 140°05'0 0.0
2017-Jan-18 01:26N 35°33' E 140°05'0 0.0
2017-Jan-18 00:23N 35°33' E 140°05'0 0.1
2017-Jan-17 23:32N 35°33' E 140°05'8 8.3
2017-Jan-17 22:31N 35°29' E 139°56'0 0.0
2017-Jan-17 21:31N 35°29' E 139°56'0 0.0
2017-Jan-17 20:31N 35°29' E 139°56'0 0.0
2017-Jan-17 19:31N 35°29' E 139°56'0 0.0
2017-Jan-17 18:31N 35°29' E 139°56'0 0.0
2017-Jan-17 17:31N 35°29' E 139°56'0 0.0
2017-Jan-17 16:25N 35°29' E 139°56'0 0.1
2017-Jan-17 15:31N 35°29' E 139°56'0 0.0
2017-Jan-17 14:31N 35°29' E 139°56'0 0.0
2017-Jan-17 13:31N 35°29' E 139°56'0 0.0
2017-Jan-17 12:31N 35°29' E 139°56'0 0.0
2017-Jan-17 11:31N 35°29' E 139°56'0 0.0
2017-Jan-17 10:31N 35°29' E 139°56'0 0.0
2017-Jan-17 09:28N 35°29' E 139°56'7 7.2
2017-Jan-17 08:33N 35°26' E 139°49'1111.0
2017-Jan-17 07:33N 35°15' E 139°47'24810.7
2017-Jan-16 08:20N 33°59' E 135°00'1012.9
2017-Jan-16 07:33N 34°09' E 134°59'1512.0
2017-Jan-16 06:18N 34°24' E 135°04'1012.8
2017-Jan-16 05:33N 34°30' E 135°12'1111.3
2017-Jan-16 04:33N 34°36' E 135°24'3 2.6
2017-Jan-16 03:33N 34°34' E 135°26'0 0.0
2017-Jan-16 02:32N 34°34' E 135°26'0 0.0
2017-Jan-16 01:21N 34°34' E 135°26'5 5.8
2017-Jan-16 00:31N 34°34' E 135°20'1111.7
2017-Jan-15 23:33N 34°26' E 135°10'1311.8
2017-Jan-15 22:27N 34°16' E 134°60'1011.3
2017-Jan-15 21:33N 34°06' E 135°01'  
2017-Jan-13 08:31N 34°06' E 134°59'1313.1
2017-Jan-13 07:32N 34°19' E 134°59'1212.0
2017-Jan-13 06:32N 34°28' E 135°10'1111.7
2017-Jan-13 05:33N 34°35' E 135°20'4 4.0
2017-Jan-13 04:29N 34°34' E 135°26'0 0.0
2017-Jan-13 03:29N 34°34' E 135°26'0 0.0
2017-Jan-13 02:29N 34°34' E 135°26'2 2.1
2017-Jan-13 01:33N 34°36' E 135°25'1 1.3
2017-Jan-13 00:31N 34°36' E 135°23'0 0.0
2017-Jan-12 23:31N 34°36' E 135°23'4 3.8
2017-Jan-12 22:33N 34°33' E 135°20'1211.9
2017-Jan-12 21:34N 34°25' E 135°09'1212.1
2017-Jan-12 20:33N 34°16' E 134°60'1111.4
2017-Jan-12 19:33N 34°05' E 135°01'  

Dump ship's entire track history